sensor_id;sensor_type;location;lat;lon;timestamp;pressure;altitude;pressure_sealevel;temperature
69857;BMP280;57147;53.582;10.112;2023-02-11T00:02:43;102701.25;;;5.02
69857;BMP280;57147;53.582;10.112;2023-02-11T00:07:43;102701.25;;;4.96
69857;BMP280;57147;53.582;10.112;2023-02-11T00:12:44;102708.94;;;5.11
69857;BMP280;57147;53.582;10.112;2023-02-11T00:17:49;102699.44;;;5.03
69857;BMP280;57147;53.582;10.112;2023-02-11T00:22:50;102718.88;;;5.02
69857;BMP280;57147;53.582;10.112;2023-02-11T00:27:52;102737.91;;;4.91
69857;BMP280;57147;53.582;10.112;2023-02-11T00:32:55;102733.44;;;4.85
69857;BMP280;57147;53.582;10.112;2023-02-11T00:37:56;102735.25;;;4.91
69857;BMP280;57147;53.582;10.112;2023-02-11T00:42:57;102752.06;;;4.77
69857;BMP280;57147;53.582;10.112;2023-02-11T00:48:00;102712.78;;;4.75
69857;BMP280;57147;53.582;10.112;2023-02-11T00:53:00;102712.19;;;4.80
69857;BMP280;57147;53.582;10.112;2023-02-11T00:58:01;102693.16;;;4.78
69857;BMP280;57147;53.582;10.112;2023-02-11T01:03:05;102679.56;;;4.74
69857;BMP280;57147;53.582;10.112;2023-02-11T01:08:05;102681.19;;;4.69
69857;BMP280;57147;53.582;10.112;2023-02-11T01:13:06;102691.75;;;4.82
69857;BMP280;57147;53.582;10.112;2023-02-11T01:18:09;102684.84;;;4.87
69857;BMP280;57147;53.582;10.112;2023-02-11T01:23:10;102673.91;;;4.84
69857;BMP280;57147;53.582;10.112;2023-02-11T01:28:15;102652.44;;;4.87
69857;BMP280;57147;53.582;10.112;2023-02-11T01:33:18;102653.69;;;4.78
69857;BMP280;57147;53.582;10.112;2023-02-11T01:38:21;102658.53;;;4.81
69857;BMP280;57147;53.582;10.112;2023-02-11T01:43:23;102644.38;;;4.82
69857;BMP280;57147;53.582;10.112;2023-02-11T01:48:28;102605.66;;;4.89
69857;BMP280;57147;53.582;10.112;2023-02-11T01:53:31;102588.09;;;4.83
69857;BMP280;57147;53.582;10.112;2023-02-11T01:58:37;102565.41;;;4.82
69857;BMP280;57147;53.582;10.112;2023-02-11T02:03:42;102616.00;;;4.71
69857;BMP280;57147;53.582;10.112;2023-02-11T02:08:47;102573.50;;;4.80
69857;BMP280;57147;53.582;10.112;2023-02-11T02:13:50;102475.13;;;4.42
69857;BMP280;57147;53.582;10.112;2023-02-11T02:19:02;102499.00;;;4.80
69857;BMP280;57147;53.582;10.112;2023-02-11T02:24:30;102519.66;;;4.83
69857;BMP280;57147;53.582;10.112;2023-02-11T02:29:59;102763.00;;;4.87
69857;BMP280;57147;53.582;10.112;2023-02-11T02:35:11;102748.44;;;4.91
69857;BMP280;57147;53.582;10.112;2023-02-11T02:40:18;102767.47;;;4.93
69857;BMP280;57147;53.582;10.112;2023-02-11T02:45:20;102778.81;;;5.00
69857;BMP280;57147;53.582;10.112;2023-02-11T02:50:26;102789.00;;;5.16
69857;BMP280;57147;53.582;10.112;2023-02-11T02:55:41;102809.28;;;5.22
69857;BMP280;57147;53.582;10.112;2023-02-11T03:06:02;102802.38;;;5.21
69857;BMP280;57147;53.582;10.112;2023-02-11T03:11:06;102799.09;;;5.13
69857;BMP280;57147;53.582;10.112;2023-02-11T03:16:10;102764.66;;;5.14
69857;BMP280;57147;53.582;10.112;2023-02-11T03:21:15;102743.59;;;5.14
69857;BMP280;57147;53.582;10.112;2023-02-11T03:26:22;102737.75;;;5.19
69857;BMP280;57147;53.582;10.112;2023-02-11T03:31:27;102735.50;;;5.16
69857;BMP280;57147;53.582;10.112;2023-02-11T03:36:38;102723.97;;;5.23
69857;BMP280;57147;53.582;10.112;2023-02-11T03:41:41;102723.38;;;5.34
69857;BMP280;57147;53.582;10.112;2023-02-11T03:46:47;102725.38;;;5.46
69857;BMP280;57147;53.582;10.112;2023-02-11T03:51:52;102752.94;;;5.56
69857;BMP280;57147;53.582;10.112;2023-02-11T03:56:54;102741.38;;;5.57
69857;BMP280;57147;53.582;10.112;2023-02-11T04:01:55;102746.22;;;5.67
69857;BMP280;57147;53.582;10.112;2023-02-11T04:06:58;102746.25;;;5.54
69857;BMP280;57147;53.582;10.112;2023-02-11T04:11:59;102751.31;;;5.62
69857;BMP280;57147;53.582;10.112;2023-02-11T04:17:00;102745.22;;;5.68
69857;BMP280;57147;53.582;10.112;2023-02-11T04:22:03;102626.78;;;5.73
69857;BMP280;57147;53.582;10.112;2023-02-11T04:27:04;102570.19;;;5.75
69857;BMP280;57147;53.582;10.112;2023-02-11T04:32:04;102556.38;;;5.80
69857;BMP280;57147;53.582;10.112;2023-02-11T04:37:07;102550.50;;;5.78
69857;BMP280;57147;53.582;10.112;2023-02-11T04:42:08;102550.06;;;5.88
69857;BMP280;57147;53.582;10.112;2023-02-11T04:47:09;102557.31;;;5.92
69857;BMP280;57147;53.582;10.112;2023-02-11T04:52:12;102543.13;;;5.93
69857;BMP280;57147;53.582;10.112;2023-02-11T04:57:12;102549.59;;;5.97
69857;BMP280;57147;53.582;10.112;2023-02-11T05:02:13;102544.75;;;5.94
69857;BMP280;57147;53.582;10.112;2023-02-11T05:07:16;102560.13;;;5.97
69857;BMP280;57147;53.582;10.112;2023-02-11T05:12:17;102555.28;;;5.94
69857;BMP280;57147;53.582;10.112;2023-02-11T05:17:17;102535.63;;;5.90
69857;BMP280;57147;53.582;10.112;2023-02-11T05:22:21;102509.94;;;5.79
69857;BMP280;57147;53.582;10.112;2023-02-11T05:27:21;102697.09;;;5.79
69857;BMP280;57147;53.582;10.112;2023-02-11T05:32:22;102734.06;;;5.72
69857;BMP280;57147;53.582;10.112;2023-02-11T05:37:25;102703.78;;;5.82
69857;BMP280;57147;53.582;10.112;2023-02-11T05:42:26;102713.69;;;5.93
69857;BMP280;57147;53.582;10.112;2023-02-11T05:47:27;102705.81;;;5.86
69857;BMP280;57147;53.582;10.112;2023-02-11T05:52:30;102687.75;;;5.90
69857;BMP280;57147;53.582;10.112;2023-02-11T05:57:31;102703.56;;;5.96
69857;BMP280;57147;53.582;10.112;2023-02-11T06:02:32;102693.41;;;5.93
69857;BMP280;57147;53.582;10.112;2023-02-11T06:07:36;102706.19;;;5.96
69857;BMP280;57147;53.582;10.112;2023-02-11T06:12:36;102693.41;;;5.93
69857;BMP280;57147;53.582;10.112;2023-02-11T06:17:37;102686.06;;;6.02
69857;BMP280;57147;53.582;10.112;2023-02-11T06:22:40;102681.19;;;6.05
69857;BMP280;57147;53.582;10.112;2023-02-11T06:27:41;102710.00;;;6.00
69857;BMP280;57147;53.582;10.112;2023-02-11T06:32:42;102717.94;;;6.00
69857;BMP280;57147;53.582;10.112;2023-02-11T06:37:45;102721.97;;;6.03
69857;BMP280;57147;53.582;10.112;2023-02-11T06:42:46;102720.00;;;5.98
69857;BMP280;57147;53.582;10.112;2023-02-11T06:47:46;102729.44;;;6.12
69857;BMP280;57147;53.582;10.112;2023-02-11T06:52:49;102739.44;;;6.10
69857;BMP280;57147;53.582;10.112;2023-02-11T06:57:50;102735.38;;;6.01
69857;BMP280;57147;53.582;10.112;2023-02-11T07:02:51;102688.75;;;5.95
69857;BMP280;57147;53.582;10.112;2023-02-11T07:07:54;102636.00;;;5.95
69857;BMP280;57147;53.582;10.112;2023-02-11T07:12:55;102610.03;;;5.99
69857;BMP280;57147;53.582;10.112;2023-02-11T07:17:55;102632.34;;;5.96
69857;BMP280;57147;53.582;10.112;2023-02-11T07:22:58;102605.34;;;6.01
69857;BMP280;57147;53.582;10.112;2023-02-11T07:27:59;102593.78;;;6.02
69857;BMP280;57147;53.582;10.112;2023-02-11T07:33:00;102588.47;;;6.08
69857;BMP280;57147;53.582;10.112;2023-02-11T07:38:03;102605.94;;;6.09
69857;BMP280;57147;53.582;10.112;2023-02-11T07:43:04;102608.72;;;6.15
69857;BMP280;57147;53.582;10.112;2023-02-11T07:48:05;102626.63;;;6.06
69857;BMP280;57147;53.582;10.112;2023-02-11T07:53:08;102638.34;;;6.17
69857;BMP280;57147;53.582;10.112;2023-02-11T07:58:08;102659.84;;;6.20
69857;BMP280;57147;53.582;10.112;2023-02-11T08:03:09;102665.50;;;6.24
69857;BMP280;57147;53.582;10.112;2023-02-11T08:08:12;102635.88;;;6.22
69857;BMP280;57147;53.582;10.112;2023-02-11T08:13:13;102643.22;;;6.13
69857;BMP280;57147;53.582;10.112;2023-02-11T08:18:13;102641.78;;;6.24
69857;BMP280;57147;53.582;10.112;2023-02-11T08:23:17;102648.06;;;6.23
69857;BMP280;57147;53.582;10.112;2023-02-11T08:28:17;102659.78;;;6.27
69857;BMP280;57147;53.582;10.112;2023-02-11T08:33:18;102679.22;;;6.39
69857;BMP280;57147;53.582;10.112;2023-02-11T08:38:21;102708.44;;;6.44
69857;BMP280;57147;53.582;10.112;2023-02-11T08:43:21;102707.63;;;6.37
69857;BMP280;57147;53.582;10.112;2023-02-11T08:48:22;102705.19;;;6.35
69857;BMP280;57147;53.582;10.112;2023-02-11T08:53:25;102703.97;;;6.38
69857;BMP280;57147;53.582;10.112;2023-02-11T08:58:26;102702.00;;;6.27
69857;BMP280;57147;53.582;10.112;2023-02-11T09:03:31;102706.06;;;6.29
69857;BMP280;57147;53.582;10.112;2023-02-11T09:08:36;102680.06;;;6.33
69857;BMP280;57147;53.582;10.112;2023-02-11T09:13:37;102683.72;;;6.32
69857;BMP280;57147;53.582;10.112;2023-02-11T09:18:39;102710.47;;;6.42
69857;BMP280;57147;53.582;10.112;2023-02-11T09:23:43;102697.28;;;6.42
69857;BMP280;57147;53.582;10.112;2023-02-11T09:28:43;102734.78;;;6.51
69857;BMP280;57147;53.582;10.112;2023-02-11T09:33:47;102738.44;;;6.49
69857;BMP280;57147;53.582;10.112;2023-02-11T09:38:54;102732.13;;;6.51
69857;BMP280;57147;53.582;10.112;2023-02-11T09:43:56;102726.66;;;6.52
69857;BMP280;57147;53.582;10.112;2023-02-11T09:48:58;102737.97;;;6.59
69857;BMP280;57147;53.582;10.112;2023-02-11T09:54:10;102737.44;;;6.75
69857;BMP280;57147;53.582;10.112;2023-02-11T09:59:13;102747.16;;;6.81
69857;BMP280;57147;53.582;10.112;2023-02-11T10:04:22;102758.09;;;6.85
69857;BMP280;57147;53.582;10.112;2023-02-11T10:09:39;102802.75;;;6.93
69857;BMP280;57147;53.582;10.112;2023-02-11T10:15:04;102836.81;;;7.08
69857;BMP280;57147;53.582;10.112;2023-02-11T10:20:10;102911.78;;;7.07
69857;BMP280;57147;53.582;10.112;2023-02-11T10:25:21;102917.31;;;6.99
69857;BMP280;57147;53.582;10.112;2023-02-11T10:30:27;102885.28;;;6.89
69857;BMP280;57147;53.582;10.112;2023-02-11T10:35:28;102822.47;;;6.91
69857;BMP280;57147;53.582;10.112;2023-02-11T10:40:32;102780.47;;;6.82
69857;BMP280;57147;53.582;10.112;2023-02-11T10:45:40;102743.94;;;6.79
69857;BMP280;57147;53.582;10.112;2023-02-11T10:50:41;102731.75;;;6.78
69857;BMP280;57147;53.582;10.112;2023-02-11T10:55:52;102632.78;;;6.81
69857;BMP280;57147;53.582;10.112;2023-02-11T11:00:56;102605.75;;;6.85
69857;BMP280;57147;53.582;10.112;2023-02-11T11:05:59;102612.16;;;6.71
69857;BMP280;57147;53.582;10.112;2023-02-11T11:11:05;102622.91;;;6.76
69857;BMP280;57147;53.582;10.112;2023-02-11T11:16:10;102669.94;;;6.86
69857;BMP280;57147;53.582;10.112;2023-02-11T11:21:17;102694.94;;;6.83
69857;BMP280;57147;53.582;10.112;2023-02-11T11:26:22;102701.22;;;6.89
69857;BMP280;57147;53.582;10.112;2023-02-11T11:31:27;102710.50;;;6.92
69857;BMP280;57147;53.582;10.112;2023-02-11T11:36:34;102731.31;;;6.81
69857;BMP280;57147;53.582;10.112;2023-02-11T11:41:48;102758.06;;;6.92
69857;BMP280;57147;53.582;10.112;2023-02-11T11:52:19;102791.75;;;6.96
69857;BMP280;57147;53.582;10.112;2023-02-11T11:57:26;102779.50;;;7.02
69857;BMP280;57147;53.582;10.112;2023-02-11T12:08:09;102766.50;;;7.07
69857;BMP280;57147;53.582;10.112;2023-02-11T12:13:23;102762.75;;;7.21
69857;BMP280;57147;53.582;10.112;2023-02-11T12:24:28;102776.19;;;7.13
69857;BMP280;57147;53.582;10.112;2023-02-11T12:29:54;102766.44;;;7.13
69857;BMP280;57147;53.582;10.112;2023-02-11T12:35:15;102746.56;;;7.11
69857;BMP280;57147;53.582;10.112;2023-02-11T12:40:26;102723.81;;;7.10
69857;BMP280;57147;53.582;10.112;2023-02-11T12:45:48;102719.25;;;7.17
69857;BMP280;57147;53.582;10.112;2023-02-11T12:50:55;102725.84;;;7.08
69857;BMP280;57147;53.582;10.112;2023-02-11T12:56:00;102732.75;;;7.09
69857;BMP280;57147;53.582;10.112;2023-02-11T13:01:25;102733.91;;;7.13
69857;BMP280;57147;53.582;10.112;2023-02-11T13:06:30;102750.56;;;7.20
69857;BMP280;57147;53.582;10.112;2023-02-11T13:11:37;102779.84;;;7.12
69857;BMP280;57147;53.582;10.112;2023-02-11T13:16:47;102726.22;;;6.86
69857;BMP280;57147;53.582;10.112;2023-02-11T13:21:55;102714.91;;;6.79
69857;BMP280;57147;53.582;10.112;2023-02-11T13:27:06;102756.69;;;7.14
69857;BMP280;57147;53.582;10.112;2023-02-11T13:32:13;102759.91;;;7.16
69857;BMP280;57147;53.582;10.112;2023-02-11T13:37:19;102765.59;;;7.19
69857;BMP280;57147;53.582;10.112;2023-02-11T13:42:21;102773.81;;;7.05
69857;BMP280;57147;53.582;10.112;2023-02-11T13:47:29;102774.81;;;7.10
69857;BMP280;57147;53.582;10.112;2023-02-11T13:52:31;102775.84;;;7.09
69857;BMP280;57147;53.582;10.112;2023-02-11T13:57:38;102790.28;;;7.07
69857;BMP280;57147;53.582;10.112;2023-02-11T14:02:42;102744.00;;;7.22
69857;BMP280;57147;53.582;10.112;2023-02-11T14:08:11;102698.56;;;7.14
69857;BMP280;57147;53.582;10.112;2023-02-11T14:13:21;102716.91;;;7.09
69857;BMP280;57147;53.582;10.112;2023-02-11T14:29:38;102707.25;;;7.21
69857;BMP280;57147;53.582;10.112;2023-02-11T14:34:50;102720.50;;;7.14
69857;BMP280;57147;53.582;10.112;2023-02-11T14:40:03;102715.81;;;7.16
69857;BMP280;57147;53.582;10.112;2023-02-11T14:45:10;102736.56;;;7.13
69857;BMP280;57147;53.582;10.112;2023-02-11T14:50:23;102856.66;;;7.17
69857;BMP280;57147;53.582;10.112;2023-02-11T14:55:30;102894.41;;;7.24
69857;BMP280;57147;53.582;10.112;2023-02-11T15:00:34;102950.56;;;7.13
69857;BMP280;57147;53.582;10.112;2023-02-11T15:05:35;102978.28;;;6.91
69857;BMP280;57147;53.582;10.112;2023-02-11T15:10:40;103029.94;;;6.86
69857;BMP280;57147;53.582;10.112;2023-02-11T15:15:45;103046.19;;;6.83
69857;BMP280;57147;53.582;10.112;2023-02-11T15:20:46;103053.91;;;6.78
69857;BMP280;57147;53.582;10.112;2023-02-11T15:25:51;103067.53;;;6.75
69857;BMP280;57147;53.582;10.112;2023-02-11T15:31:01;103091.28;;;6.75
69857;BMP280;57147;53.582;10.112;2023-02-11T15:36:02;103129.47;;;6.60
69857;BMP280;57147;53.582;10.112;2023-02-11T15:41:04;103136.59;;;6.59
69857;BMP280;57147;53.582;10.112;2023-02-11T15:46:08;103115.69;;;6.51
69857;BMP280;57147;53.582;10.112;2023-02-11T15:51:17;103098.63;;;6.54
69857;BMP280;57147;53.582;10.112;2023-02-11T15:56:20;103120.56;;;6.54
69857;BMP280;57147;53.582;10.112;2023-02-11T16:01:31;103136.41;;;6.54
69857;BMP280;57147;53.582;10.112;2023-02-11T16:06:36;103159.94;;;6.49
69857;BMP280;57147;53.582;10.112;2023-02-11T16:11:54;103157.50;;;6.41
69857;BMP280;57147;53.582;10.112;2023-02-11T16:17:01;103140.03;;;6.40
69857;BMP280;57147;53.582;10.112;2023-02-11T16:22:07;103143.91;;;6.44
69857;BMP280;57147;53.582;10.112;2023-02-11T16:27:20;103129.28;;;6.48
69857;BMP280;57147;53.582;10.112;2023-02-11T16:32:25;103150.63;;;6.53
69857;BMP280;57147;53.582;10.112;2023-02-11T16:37:26;103146.13;;;6.47
69857;BMP280;57147;53.582;10.112;2023-02-11T16:42:26;103175.00;;;6.55
69857;BMP280;57147;53.582;10.112;2023-02-11T16:47:30;103171.94;;;6.45
69857;BMP280;57147;53.582;10.112;2023-02-11T16:52:31;103158.31;;;6.48
69857;BMP280;57147;53.582;10.112;2023-02-11T16:57:31;103161.16;;;6.40
69857;BMP280;57147;53.582;10.112;2023-02-11T17:02:36;103133.75;;;6.34
69857;BMP280;57147;53.582;10.112;2023-02-11T17:07:37;103119.13;;;6.32
69857;BMP280;57147;53.582;10.112;2023-02-11T17:12:37;103132.31;;;6.32
69857;BMP280;57147;53.582;10.112;2023-02-11T17:17:41;103142.91;;;6.45
69857;BMP280;57147;53.582;10.112;2023-02-11T17:22:42;103153.03;;;6.48
69857;BMP280;57147;53.582;10.112;2023-02-11T17:27:42;103171.75;;;6.46
69857;BMP280;57147;53.582;10.112;2023-02-11T17:32:45;103184.50;;;6.43
69857;BMP280;57147;53.582;10.112;2023-02-11T17:37:46;103179.00;;;6.38
69857;BMP280;57147;53.582;10.112;2023-02-11T17:42:47;103185.94;;;6.45
69857;BMP280;57147;53.582;10.112;2023-02-11T17:47:52;103172.09;;;6.37
69857;BMP280;57147;53.582;10.112;2023-02-11T17:52:52;103166.81;;;6.30
69857;BMP280;57147;53.582;10.112;2023-02-11T17:57:53;103177.75;;;6.21
69857;BMP280;57147;53.582;10.112;2023-02-11T18:02:56;103173.53;;;6.33
69857;BMP280;57147;53.582;10.112;2023-02-11T18:07:57;103220.41;;;6.31
69857;BMP280;57147;53.582;10.112;2023-02-11T18:12:58;103221.00;;;6.26
69857;BMP280;57147;53.582;10.112;2023-02-11T18:18:02;103250.44;;;6.30
69857;BMP280;57147;53.582;10.112;2023-02-11T18:23:03;103265.47;;;6.36
69857;BMP280;57147;53.582;10.112;2023-02-11T18:28:03;103272.56;;;6.35
69857;BMP280;57147;53.582;10.112;2023-02-11T18:33:11;103264.25;;;6.32
69857;BMP280;57147;53.582;10.112;2023-02-11T18:38:13;103258.19;;;6.38
69857;BMP280;57147;53.582;10.112;2023-02-11T18:43:15;103240.72;;;6.37
69857;BMP280;57147;53.582;10.112;2023-02-11T18:48:18;103239.94;;;6.43
69857;BMP280;57147;53.582;10.112;2023-02-11T18:53:19;103242.56;;;6.43
69857;BMP280;57147;53.582;10.112;2023-02-11T18:58:20;103236.09;;;6.45
69857;BMP280;57147;53.582;10.112;2023-02-11T19:03:24;103247.47;;;6.46
69857;BMP280;57147;53.582;10.112;2023-02-11T19:08:24;103245.03;;;6.51
69857;BMP280;57147;53.582;10.112;2023-02-11T19:13:27;103259.44;;;6.42
69857;BMP280;57147;53.582;10.112;2023-02-11T19:18:31;103254.97;;;6.49
69857;BMP280;57147;53.582;10.112;2023-02-11T19:23:32;103266.38;;;6.56
69857;BMP280;57147;53.582;10.112;2023-02-11T19:28:33;103290.31;;;6.61
69857;BMP280;57147;53.582;10.112;2023-02-11T19:33:37;103301.28;;;6.45
69857;BMP280;57147;53.582;10.112;2023-02-11T19:38:37;103269.19;;;6.48
69857;BMP280;57147;53.582;10.112;2023-02-11T19:43:39;103280.56;;;6.62
69857;BMP280;57147;53.582;10.112;2023-02-11T19:48:42;103291.97;;;6.56
69857;BMP280;57147;53.582;10.112;2023-02-11T19:53:47;103264.72;;;6.48
69857;BMP280;57147;53.582;10.112;2023-02-11T19:58:47;103283.44;;;6.54
69857;BMP280;57147;53.582;10.112;2023-02-11T20:03:53;103283.03;;;6.63
69857;BMP280;57147;53.582;10.112;2023-02-11T20:08:55;103287.91;;;6.66
69857;BMP280;57147;53.582;10.112;2023-02-11T20:13:56;103315.38;;;6.78
69857;BMP280;57147;53.582;10.112;2023-02-11T20:18:59;103341.22;;;6.90
69857;BMP280;57147;53.582;10.112;2023-02-11T20:24:00;103376.94;;;6.85
69857;BMP280;57147;53.582;10.112;2023-02-11T20:29:01;103406.19;;;6.84
69857;BMP280;57147;53.582;10.112;2023-02-11T20:34:04;103410.28;;;6.93
69857;BMP280;57147;53.582;10.112;2023-02-11T20:39:05;103427.59;;;6.96
69857;BMP280;57147;53.582;10.112;2023-02-11T20:44:07;103430.63;;;6.93
69857;BMP280;57147;53.582;10.112;2023-02-11T20:49:13;103436.31;;;6.90
69857;BMP280;57147;53.582;10.112;2023-02-11T20:54:16;103421.69;;;6.94
69857;BMP280;57147;53.582;10.112;2023-02-11T20:59:17;103425.13;;;6.88
69857;BMP280;57147;53.582;10.112;2023-02-11T21:04:22;103445.66;;;6.92
69857;BMP280;57147;53.582;10.112;2023-02-11T21:09:25;103429.44;;;7.02
69857;BMP280;57147;53.582;10.112;2023-02-11T21:14:26;103292.22;;;6.94
69857;BMP280;57147;53.582;10.112;2023-02-11T21:19:30;103296.88;;;6.85
69857;BMP280;57147;53.582;10.112;2023-02-11T21:24:34;103320.03;;;6.76
69857;BMP280;57147;53.582;10.112;2023-02-11T21:29:34;103291.19;;;6.68
69857;BMP280;57147;53.582;10.112;2023-02-11T21:34:38;103296.47;;;6.81
69857;BMP280;57147;53.582;10.112;2023-02-11T21:39:40;103307.03;;;6.75
69857;BMP280;57147;53.582;10.112;2023-02-11T21:44:43;103301.50;;;6.63
69857;BMP280;57147;53.582;10.112;2023-02-11T21:49:46;103309.22;;;6.58
69857;BMP280;57147;53.582;10.112;2023-02-11T21:54:51;103322.25;;;6.73
69857;BMP280;57147;53.582;10.112;2023-02-11T21:59:51;103290.66;;;6.38
69857;BMP280;57147;53.582;10.112;2023-02-11T22:04:55;103329.69;;;6.49
69857;BMP280;57147;53.582;10.112;2023-02-11T22:09:56;103316.31;;;6.51
69857;BMP280;57147;53.582;10.112;2023-02-11T22:14:56;103300.84;;;6.48
69857;BMP280;57147;53.582;10.112;2023-02-11T22:20:00;103351.53;;;6.78
69857;BMP280;57147;53.582;10.112;2023-02-11T22:25:00;103373.63;;;6.64
69857;BMP280;57147;53.582;10.112;2023-02-11T22:30:01;103390.06;;;6.59
69857;BMP280;57147;53.582;10.112;2023-02-11T22:35:05;103383.97;;;6.65
69857;BMP280;57147;53.582;10.112;2023-02-11T22:40:07;103393.56;;;6.73
69857;BMP280;57147;53.582;10.112;2023-02-11T22:45:08;103407.97;;;6.70
69857;BMP280;57147;53.582;10.112;2023-02-11T22:50:11;103405.63;;;6.47
69857;BMP280;57147;53.582;10.112;2023-02-11T22:55:12;103392.25;;;6.49
69857;BMP280;57147;53.582;10.112;2023-02-11T23:00:14;103401.16;;;6.48
69857;BMP280;57147;53.582;10.112;2023-02-11T23:05:17;103410.50;;;6.44
69857;BMP280;57147;53.582;10.112;2023-02-11T23:10:18;103399.63;;;6.26
69857;BMP280;57147;53.582;10.112;2023-02-11T23:15:19;103377.03;;;6.17
69857;BMP280;57147;53.582;10.112;2023-02-11T23:20:22;103372.63;;;6.24
69857;BMP280;57147;53.582;10.112;2023-02-11T23:25:23;103382.16;;;6.25
69857;BMP280;57147;53.582;10.112;2023-02-11T23:30:23;103421.00;;;6.37
69857;BMP280;57147;53.582;10.112;2023-02-11T23:35:26;103440.06;;;6.33
69857;BMP280;57147;53.582;10.112;2023-02-11T23:40:27;103454.28;;;6.32
69857;BMP280;57147;53.582;10.112;2023-02-11T23:45:28;103453.16;;;6.20
69857;BMP280;57147;53.582;10.112;2023-02-11T23:50:31;103458.97;;;6.08
69857;BMP280;57147;53.582;10.112;2023-02-11T23:55:31;103459.81;;;6.16
